OPA Logo
 
ASOS:
At:2019.10.21 1535 UTC
Wind:190° @ 7KT
Viz: 10 mile(s)
Sky: overcast
Temp: 48 F (9 C)
DewP: 37 F (3 C)
RH: 66%
Baro: 30.26 in.
ob: KBDN 211535Z AUTO 19007KT 10SM OVC055 09/03 A3026 RMK AO2

ASOS: KRDM
At:2019.10.21 1456 UTC
Wind:
Viz: 10 mile(s)
Sky: overcast
Temp: 48.9 F (9.4 C)
DewP: 37.0 F (2.8 C)
RH: 63%
Baro: 30.26 in.
ob: KRDM 211456Z AUTO 00000KT 10SM OVC050 09/03 A3026 RMK AO2 SLP244 T00940028 51016
Apache-SSL Logo

Valid HTML 4.01!

Central Oregon OPA Chapter

Chapter Officers 2006:

President
Gary E. Miller
109 NW Wilmington Ave.
Bend OR 97701
541 382-8588
gem@rellim.com

Vice President:
Open

Secretary/Treasurer:
Don Wilfong
210 SE Cessna Dr
Bend OR 97702
541 389-1456
dwnw@bendbroadband.com


Web page by: gem@rellim.com